Time;durP1;ratioP1;P1;durP2;ratioP2;P2;SDS_P1;SDS_P2;PMS_P1;PMS_P2;Temp;Humidity;BMP_temperature;BMP_pressure;BME280_temperature;BME280_humidity;BME280_pressure;Samples;Min_cycle;Max_cycle;Signal;HPM_P1;HPM_P2
2022/08/04 00:01:11;;;;;;;;;;;22.20;46.80;;;;;;471127;251;2207;-51
2022/08/04 00:03:12;;;;;;;;;;;22.30;46.90;;;;;;470949;251;1180;-51
2022/08/04 00:05:14;;;;;;;;;;;22.20;46.90;;;;;;471219;251;1219;-51
2022/08/04 00:07:15;;;;;;;;;;;22.20;47.00;;;;;;471038;251;1373;-51
2022/08/04 00:09:17;;;;;;;;;;;22.20;46.90;;;;;;471067;251;1278;-51
2022/08/04 00:11:18;;;;;;;;;;;22.20;46.90;;;;;;478944;247;1316;-51
2022/08/04 00:13:19;;;;;;;;;;;22.30;47.00;;;;;;482446;246;1240;-51
2022/08/04 00:15:21;;;;;;;;;;;22.20;46.90;;;;;;482562;247;1582;-51
2022/08/04 00:17:22;;;;;;;;;;;22.20;46.90;;;;;;482496;247;1275;-51
2022/08/04 00:19:23;;;;;;;;;;;22.30;47.00;;;;;;482599;246;1208;-51
2022/08/04 00:21:25;;;;;;;;;;;22.20;47.00;;;;;;482591;246;2122;-51
2022/08/04 00:23:26;;;;;;;;;;;22.20;46.90;;;;;;482178;247;1203;-51
2022/08/04 00:25:27;;;;;;;;;;;22.20;47.00;;;;;;482614;246;977;-51
2022/08/04 00:27:29;;;;;;;;;;;22.20;47.00;;;;;;482526;247;1164;-51
2022/08/04 00:29:30;;;;;;;;;;;22.20;47.00;;;;;;482551;247;1055;-51
2022/08/04 00:31:31;;;;;;;;;;;22.20;47.00;;;;;;482594;246;1050;-51
2022/08/04 00:33:33;;;;;;;;;;;22.20;47.00;;;;;;482181;247;1046;-51
2022/08/04 00:35:34;;;;;;;;;;;22.20;47.00;;;;;;482182;247;1066;-51
2022/08/04 00:37:35;;;;;;;;;;;22.30;47.00;;;;;;480879;247;1139;-51
2022/08/04 00:39:37;;;;;;;;;;;22.30;47.00;;;;;;471178;252;1323;-51
2022/08/04 00:41:38;;;;;;;;;;;22.20;47.00;;;;;;471156;250;2135;-51
2022/08/04 00:43:39;;;;;;;;;;;22.20;47.00;;;;;;478838;247;1108;-52
2022/08/04 00:45:40;;;;;;;;;;;22.30;47.10;;;;;;482569;247;1176;-51
2022/08/04 00:47:42;;;;;;;;;;;22.20;47.10;;;;;;482109;247;1244;-51
2022/08/04 00:49:43;;;;;;;;;;;22.20;47.10;;;;;;481894;247;1283;-51
2022/08/04 00:51:45;;;;;;;;;;;22.20;47.10;;;;;;482098;247;1201;-51
2022/08/04 00:53:46;;;;;;;;;;;22.20;47.20;;;;;;475441;247;1202;-51
2022/08/04 00:55:47;;;;;;;;;;;22.20;47.10;;;;;;470958;251;1268;-51
2022/08/04 00:57:49;;;;;;;;;;;22.20;47.20;;;;;;472615;247;1356;-51
2022/08/04 00:59:50;;;;;;;;;;;22.20;47.20;;;;;;482599;247;1242;-51
2022/08/04 01:01:52;;;;;;;;;;;22.20;47.10;;;;;;482082;246;2192;-51
2022/08/04 01:03:53;;;;;;;;;;;22.30;47.10;;;;;;482556;246;988;-51
2022/08/04 01:05:54;;;;;;;;;;;22.20;47.10;;;;;;482133;246;1043;-51
2022/08/04 01:07:56;;;;;;;;;;;22.30;47.20;;;;;;482092;247;1656;-51
2022/08/04 01:09:57;;;;;;;;;;;22.30;47.20;;;;;;482298;247;1079;-51
2022/08/04 01:11:58;;;;;;;;;;;22.30;47.10;;;;;;482629;246;1109;-51
2022/08/04 01:14:00;;;;;;;;;;;22.20;47.10;;;;;;482620;246;1267;-51
2022/08/04 01:16:01;;;;;;;;;;;22.30;47.20;;;;;;482552;247;1103;-51
2022/08/04 01:18:02;;;;;;;;;;;22.30;47.20;;;;;;482429;247;1090;-51
2022/08/04 01:20:06;;;;;;;;;;;22.20;47.10;;;;;;481914;247;1099;-51
2022/08/04 01:22:06;;;;;;;;;;;22.20;47.10;;;;;;482137;247;2192;-51
2022/08/04 01:24:07;;;;;;;;;;;22.20;47.20;;;;;;475403;246;1307;-51
2022/08/04 01:26:09;;;;;;;;;;;22.30;47.20;;;;;;471216;251;1074;-51
2022/08/04 01:28:10;;;;;;;;;;;22.20;47.20;;;;;;478281;247;1205;-51
2022/08/04 01:30:11;;;;;;;;;;;22.20;47.20;;;;;;481863;247;1206;-51
2022/08/04 01:32:13;;;;;;;;;;;22.20;47.20;;;;;;482510;246;1195;-52
2022/08/04 01:34:14;;;;;;;;;;;22.20;47.20;;;;;;482093;247;1396;-51
2022/08/04 01:36:15;;;;;;;;;;;22.20;47.20;;;;;;482212;247;1384;-51
2022/08/04 01:38:17;;;;;;;;;;;22.30;47.30;;;;;;482066;247;1189;-52
2022/08/04 01:40:18;;;;;;;;;;;22.20;47.20;;;;;;482379;247;1086;-51
2022/08/04 01:42:19;;;;;;;;;;;22.20;47.20;;;;;;482056;247;2196;-51
2022/08/04 01:44:21;;;;;;;;;;;22.20;47.20;;;;;;482527;246;1142;-51
2022/08/04 01:46:22;;;;;;;;;;;22.30;47.30;;;;;;482385;247;1081;-51
2022/08/04 01:48:23;;;;;;;;;;;22.20;47.20;;;;;;482567;246;1059;-51
2022/08/04 01:50:26;;;;;;;;;;;22.20;47.20;;;;;;482494;247;1036;-51
2022/08/04 01:52:27;;;;;;;;;;;22.30;47.30;;;;;;482432;247;997;-51
2022/08/04 01:54:29;;;;;;;;;;;22.30;47.30;;;;;;482315;247;1291;-51
2022/08/04 01:56:30;;;;;;;;;;;22.30;47.30;;;;;;482134;247;1827;-51
2022/08/04 01:58:31;;;;;;;;;;;22.20;47.20;;;;;;482049;247;1274;-51
2022/08/04 02:00:32;;;;;;;;;;;22.30;47.30;;;;;;482612;247;1306;-51
2022/08/04 02:02:34;;;;;;;;;;;22.20;47.20;;;;;;482852;246;2189;-51
2022/08/04 02:04:35;;;;;;;;;;;22.30;47.30;;;;;;482193;247;1415;-51
2022/08/04 02:06:37;;;;;;;;;;;22.30;47.30;;;;;;481485;247;1263;-51
2022/08/04 02:08:38;;;;;;;;;;;22.30;47.30;;;;;;480970;247;1190;-50
2022/08/04 02:10:39;;;;;;;;;;;22.20;47.20;;;;;;471588;252;1589;-51
2022/08/04 02:12:41;;;;;;;;;;;22.30;47.30;;;;;;473036;247;1140;-51
2022/08/04 02:14:44;;;;;;;;;;;22.30;47.30;;;;;;482598;247;1159;-51
2022/08/04 02:16:43;;;;;;;;;;;22.30;47.30;;;;;;482118;247;2529;-51
2022/08/04 02:18:45;;;;;;;;;;;22.30;47.30;;;;;;482458;246;1519;-51
2022/08/04 02:20:46;;;;;;;;;;;22.20;47.30;;;;;;482090;247;1251;-51
2022/08/04 02:22:47;;;;;;;;;;;22.30;47.40;;;;;;482165;247;2122;-51
2022/08/04 02:24:49;;;;;;;;;;;22.30;47.40;;;;;;482147;247;1358;-51
2022/08/04 02:26:50;;;;;;;;;;;22.20;47.30;;;;;;481558;247;1187;-52
2022/08/04 02:28:51;;;;;;;;;;;22.20;47.30;;;;;;482145;247;1270;-51
2022/08/04 02:30:53;;;;;;;;;;;22.30;47.40;;;;;;482337;247;1262;-51
2022/08/04 02:32:54;;;;;;;;;;;22.30;47.40;;;;;;482136;247;1243;-51
2022/08/04 02:34:55;;;;;;;;;;;22.20;47.40;;;;;;482140;247;1279;-51
2022/08/04 02:36:57;;;;;;;;;;;22.30;47.40;;;;;;482388;246;1248;-51
2022/08/04 02:38:58;;;;;;;;;;;22.30;47.40;;;;;;482021;247;1504;-51
2022/08/04 02:41:00;;;;;;;;;;;22.20;47.30;;;;;;482187;247;1178;-51
2022/08/04 02:43:01;;;;;;;;;;;22.30;47.40;;;;;;482185;247;2269;-50
2022/08/04 02:45:02;;;;;;;;;;;22.30;47.40;;;;;;482491;247;1214;-51
2022/08/04 02:47:03;;;;;;;;;;;22.30;47.40;;;;;;482614;246;1466;-51
2022/08/04 02:49:05;;;;;;;;;;;22.30;47.40;;;;;;482622;247;1299;-52
2022/08/04 02:51:06;;;;;;;;;;;22.20;47.40;;;;;;482084;247;1462;-52
2022/08/04 02:53:09;;;;;;;;;;;22.20;47.40;;;;;;482154;246;1333;-51
2022/08/04 02:55:09;;;;;;;;;;;22.20;47.40;;;;;;476739;247;1756;-51
2022/08/04 02:57:10;;;;;;;;;;;22.20;47.40;;;;;;482079;247;1191;-51
2022/08/04 02:59:11;;;;;;;;;;;22.30;47.40;;;;;;482635;247;1164;-51
2022/08/04 03:01:13;;;;;;;;;;;22.20;47.40;;;;;;482186;247;1148;-52
2022/08/04 03:03:15;;;;;;;;;;;22.20;47.40;;;;;;482077;247;2193;-51
2022/08/04 03:05:15;;;;;;;;;;;22.30;47.50;;;;;;482087;247;2306;-51
2022/08/04 03:07:17;;;;;;;;;;;22.30;47.40;;;;;;482397;247;1199;-50
2022/08/04 03:09:18;;;;;;;;;;;22.30;47.40;;;;;;482121;247;1219;-51
2022/08/04 03:11:19;;;;;;;;;;;22.20;47.40;;;;;;482521;247;1206;-51
2022/08/04 03:13:21;;;;;;;;;;;22.20;47.50;;;;;;482249;246;1328;-51
2022/08/04 03:15:22;;;;;;;;;;;22.20;47.50;;;;;;482160;246;1115;-51
2022/08/04 03:17:23;;;;;;;;;;;22.20;47.50;;;;;;482092;247;1231;-51
2022/08/04 03:19:25;;;;;;;;;;;22.20;47.50;;;;;;482563;246;1169;-51
2022/08/04 03:21:26;;;;;;;;;;;22.20;47.50;;;;;;482056;247;1247;-52
2022/08/04 03:23:27;;;;;;;;;;;22.20;47.50;;;;;;482111;247;2122;-51
2022/08/04 03:25:29;;;;;;;;;;;22.20;47.50;;;;;;482169;247;1207;-52
2022/08/04 03:27:30;;;;;;;;;;;22.30;47.50;;;;;;482251;247;1228;-50
2022/08/04 03:29:31;;;;;;;;;;;22.30;47.50;;;;;;482193;247;1238;-50
2022/08/04 03:31:33;;;;;;;;;;;22.30;47.50;;;;;;482140;247;1277;-51
2022/08/04 03:33:34;;;;;;;;;;;22.20;47.50;;;;;;482237;247;1222;-51
2022/08/04 03:35:35;;;;;;;;;;;22.20;47.50;;;;;;482348;247;1217;-52
2022/08/04 03:37:37;;;;;;;;;;;22.20;47.50;;;;;;482588;247;1195;-52
2022/08/04 03:39:38;;;;;;;;;;;22.20;47.50;;;;;;482157;247;1210;-51
2022/08/04 03:41:39;;;;;;;;;;;22.20;47.50;;;;;;482287;247;1069;-51
2022/08/04 03:43:41;;;;;;;;;;;22.20;47.50;;;;;;482625;247;2117;-50
2022/08/04 03:45:42;;;;;;;;;;;22.20;47.60;;;;;;482352;247;1192;-52
2022/08/04 03:47:43;;;;;;;;;;;22.20;47.50;;;;;;482245;247;1231;-52
2022/08/04 03:49:45;;;;;;;;;;;22.20;47.60;;;;;;481922;247;1072;-51
2022/08/04 03:54:05;;;;;;;;;;;22.20;47.50;;;;;;482285;247;1250;-50
2022/08/04 03:56:07;;;;;;;;;;;22.20;47.50;;;;;;472640;247;1220;-51
2022/08/04 03:58:08;;;;;;;;;;;22.30;47.60;;;;;;470903;251;1191;-51
2022/08/04 04:00:09;;;;;;;;;;;22.30;47.60;;;;;;471281;252;1222;-52
2022/08/04 04:02:11;;;;;;;;;;;22.30;47.50;;;;;;474765;247;2189;-50
2022/08/04 04:04:12;;;;;;;;;;;22.30;47.50;;;;;;482053;247;1117;-51
2022/08/04 04:06:13;;;;;;;;;;;22.30;47.50;;;;;;482060;247;1105;-51
2022/08/04 04:08:14;;;;;;;;;;;22.30;47.60;;;;;;482155;246;1069;-51
2022/08/04 04:10:16;;;;;;;;;;;22.30;47.60;;;;;;478452;247;1375;-50
2022/08/04 04:12:17;;;;;;;;;;;22.30;47.60;;;;;;471005;252;1068;-51
2022/08/04 04:14:19;;;;;;;;;;;22.20;47.60;;;;;;470681;251;1438;-51
2022/08/04 04:16:20;;;;;;;;;;;22.20;47.60;;;;;;470942;251;1084;-51
2022/08/04 04:18:21;;;;;;;;;;;22.20;47.60;;;;;;480198;247;1046;-52
2022/08/04 04:20:23;;;;;;;;;;;22.20;47.60;;;;;;482345;247;1098;-51
2022/08/04 04:22:24;;;;;;;;;;;22.20;47.60;;;;;;482403;247;2125;-51
2022/08/04 04:24:25;;;;;;;;;;;22.20;47.60;;;;;;482451;246;1612;-51
2022/08/04 04:26:27;;;;;;;;;;;22.20;47.60;;;;;;482013;247;1153;-52
2022/08/04 04:28:28;;;;;;;;;;;22.20;47.60;;;;;;482564;247;1090;-50
2022/08/04 04:30:29;;;;;;;;;;;22.20;47.60;;;;;;482395;247;1147;-51
2022/08/04 04:32:31;;;;;;;;;;;22.30;47.60;;;;;;482475;247;1057;-51
2022/08/04 04:34:32;;;;;;;;;;;22.20;47.60;;;;;;482202;247;1128;-52
2022/08/04 04:36:33;;;;;;;;;;;22.30;47.60;;;;;;482394;247;1173;-51
2022/08/04 04:38:35;;;;;;;;;;;22.20;47.60;;;;;;481997;247;1066;-52
2022/08/04 04:40:36;;;;;;;;;;;22.20;47.60;;;;;;481868;247;1279;-51
2022/08/04 04:42:37;;;;;;;;;;;22.30;47.60;;;;;;482133;247;2208;-51
2022/08/04 04:44:39;;;;;;;;;;;22.20;47.60;;;;;;481986;247;1069;-52
2022/08/04 04:46:40;;;;;;;;;;;22.30;47.60;;;;;;481997;247;1049;-51
2022/08/04 04:48:41;;;;;;;;;;;22.20;47.60;;;;;;482342;247;1160;-52
2022/08/04 04:50:43;;;;;;;;;;;22.30;47.60;;;;;;482365;246;1155;-52
2022/08/04 04:52:44;;;;;;;;;;;22.30;47.60;;;;;;481986;246;1107;-51
2022/08/04 04:54:45;;;;;;;;;;;22.20;47.60;;;;;;482026;246;1160;-52
2022/08/04 04:56:47;;;;;;;;;;;22.20;47.70;;;;;;481974;246;1298;-51
2022/08/04 04:58:48;;;;;;;;;;;22.20;47.60;;;;;;481621;247;1061;-51
2022/08/04 05:00:49;;;;;;;;;;;22.20;47.70;;;;;;481935;247;1259;-51
2022/08/04 05:02:51;;;;;;;;;;;22.20;47.70;;;;;;482087;246;2134;-51
2022/08/04 05:04:52;;;;;;;;;;;22.20;47.70;;;;;;481958;247;1273;-52
2022/08/04 05:06:53;;;;;;;;;;;22.20;47.70;;;;;;481936;247;1375;-51
2022/08/04 05:08:55;;;;;;;;;;;22.20;47.60;;;;;;481248;247;1083;-50
2022/08/04 05:10:56;;;;;;;;;;;22.30;47.70;;;;;;478567;247;1250;-51
2022/08/04 05:12:57;;;;;;;;;;;22.20;47.60;;;;;;474683;247;1624;-51
2022/08/04 05:14:59;;;;;;;;;;;22.20;47.60;;;;;;481878;247;1238;-52
2022/08/04 05:17:00;;;;;;;;;;;22.20;47.60;;;;;;481973;247;1177;-51
2022/08/04 05:19:01;;;;;;;;;;;22.20;47.70;;;;;;482018;247;1222;-51
2022/08/04 05:21:03;;;;;;;;;;;22.20;47.60;;;;;;481670;247;1313;-50
2022/08/04 05:23:04;;;;;;;;;;;22.20;47.60;;;;;;482284;247;2118;-51
2022/08/04 05:25:05;;;;;;;;;;;22.20;47.60;;;;;;482045;246;1379;-51
2022/08/04 05:27:07;;;;;;;;;;;22.20;47.60;;;;;;476658;247;1350;-51
2022/08/04 05:29:08;;;;;;;;;;;22.20;47.70;;;;;;481868;247;1195;-51
2022/08/04 05:31:09;;;;;;;;;;;22.20;47.70;;;;;;481776;247;1296;-51
2022/08/04 05:33:11;;;;;;;;;;;22.20;47.70;;;;;;481933;247;1215;-52
2022/08/04 05:35:12;;;;;;;;;;;22.20;47.60;;;;;;481820;247;1289;-50
2022/08/04 05:37:13;;;;;;;;;;;22.20;47.70;;;;;;481905;246;1273;-51
2022/08/04 05:39:15;;;;;;;;;;;22.20;47.80;;;;;;481821;247;1230;-51
2022/08/04 05:41:16;;;;;;;;;;;22.30;47.90;;;;;;481836;247;1686;-51
2022/08/04 05:43:17;;;;;;;;;;;22.30;48.00;;;;;;481740;247;2204;-51
2022/08/04 05:45:19;;;;;;;;;;;22.30;48.00;;;;;;481932;247;1032;-51
2022/08/04 05:47:20;;;;;;;;;;;22.30;48.00;;;;;;481556;246;1404;-51
2022/08/04 05:49:22;;;;;;;;;;;22.20;48.00;;;;;;481760;246;1249;-51
2022/08/04 05:51:23;;;;;;;;;;;22.30;47.80;;;;;;481988;247;1410;-51
2022/08/04 05:53:24;;;;;;;;;;;22.30;47.60;;;;;;481723;246;1151;-51
2022/08/04 05:55:26;;;;;;;;;;;22.30;47.50;;;;;;481690;247;1104;-51
2022/08/04 05:57:27;;;;;;;;;;;22.30;47.40;;;;;;481900;246;1231;-51
2022/08/04 05:59:28;;;;;;;;;;;22.30;47.30;;;;;;481822;247;1167;-51
2022/08/04 06:01:30;;;;;;;;;;;22.30;47.20;;;;;;481778;247;1080;-51
2022/08/04 06:03:31;;;;;;;;;;;22.30;47.10;;;;;;481413;247;2188;-51
2022/08/04 06:05:32;;;;;;;;;;;22.30;47.00;;;;;;481761;246;1231;-52
2022/08/04 06:07:34;;;;;;;;;;;22.30;47.00;;;;;;479851;247;1129;-51
2022/08/04 06:09:35;;;;;;;;;;;22.30;46.90;;;;;;481813;247;1107;-51
2022/08/04 06:11:36;;;;;;;;;;;22.30;46.90;;;;;;478263;247;1183;-51
2022/08/04 06:13:38;;;;;;;;;;;22.30;46.90;;;;;;470670;252;1092;-51
2022/08/04 06:15:39;;;;;;;;;;;22.30;46.90;;;;;;470678;251;1090;-51
2022/08/04 06:17:40;;;;;;;;;;;22.30;46.80;;;;;;470673;251;1238;-51
2022/08/04 06:19:42;;;;;;;;;;;22.30;46.70;;;;;;470784;251;1292;-51
2022/08/04 06:21:43;;;;;;;;;;;22.30;46.70;;;;;;480063;247;1220;-51
2022/08/04 06:23:45;;;;;;;;;;;22.30;46.70;;;;;;481671;247;2209;-51
2022/08/04 06:25:46;;;;;;;;;;;22.30;46.70;;;;;;481701;247;1098;-52
2022/08/04 06:27:47;;;;;;;;;;;22.30;46.70;;;;;;481619;247;1253;-51
2022/08/04 06:29:49;;;;;;;;;;;22.30;46.60;;;;;;481657;247;1173;-51
2022/08/04 06:31:57;;;;;;;;;;;22.30;46.60;;;;;;481631;247;1227;-51
2022/08/04 06:33:58;;;;;;;;;;;22.30;46.50;;;;;;481660;247;1201;-51
2022/08/04 06:35:59;;;;;;;;;;;22.30;46.50;;;;;;481755;246;1178;-51
2022/08/04 06:38:01;;;;;;;;;;;22.30;46.50;;;;;;481644;247;1053;-52
2022/08/04 06:40:02;;;;;;;;;;;22.30;46.40;;;;;;481582;247;2199;-51
2022/08/04 06:42:03;;;;;;;;;;;22.30;46.50;;;;;;477494;247;1243;-51
2022/08/04 06:44:05;;;;;;;;;;;22.30;46.50;;;;;;475031;247;2216;-51
2022/08/04 06:46:06;;;;;;;;;;;22.30;46.40;;;;;;481566;247;1084;-51
2022/08/04 06:48:07;;;;;;;;;;;22.30;46.40;;;;;;481695;246;1094;-51
2022/08/04 06:50:09;;;;;;;;;;;22.30;46.40;;;;;;481624;247;1080;-51
2022/08/04 06:52:10;;;;;;;;;;;22.30;46.40;;;;;;481525;247;1162;-51
2022/08/04 06:54:11;;;;;;;;;;;22.30;46.40;;;;;;481772;247;1056;-51
2022/08/04 06:56:13;;;;;;;;;;;22.30;46.30;;;;;;480913;247;1104;-52
2022/08/04 06:58:14;;;;;;;;;;;22.30;46.30;;;;;;481635;246;1198;-51
2022/08/04 07:00:15;;;;;;;;;;;22.30;46.30;;;;;;481575;247;1126;-51
2022/08/04 07:02:17;;;;;;;;;;;22.30;46.30;;;;;;481302;247;1218;-52
2022/08/04 07:04:18;;;;;;;;;;;22.30;46.30;;;;;;480750;247;2399;-51
2022/08/04 07:06:19;;;;;;;;;;;22.30;46.20;;;;;;481228;247;1103;-51
2022/08/04 07:08:21;;;;;;;;;;;22.40;46.20;;;;;;481317;247;1174;-51
2022/08/04 07:10:22;;;;;;;;;;;22.30;46.20;;;;;;481302;247;1083;-51
2022/08/04 07:12:23;;;;;;;;;;;22.30;46.20;;;;;;481366;247;1230;-51
2022/08/04 07:14:25;;;;;;;;;;;22.30;46.20;;;;;;481434;247;1126;-51
2022/08/04 07:16:26;;;;;;;;;;;22.30;46.20;;;;;;481312;247;1608;-51
2022/08/04 07:18:27;;;;;;;;;;;22.30;46.10;;;;;;481538;247;1185;-51
2022/08/04 07:20:29;;;;;;;;;;;22.30;46.20;;;;;;481295;247;1192;-51
2022/08/04 07:22:30;;;;;;;;;;;22.30;46.10;;;;;;481320;247;1195;-51
2022/08/04 07:24:31;;;;;;;;;;;22.30;46.10;;;;;;481261;247;2125;-51
2022/08/04 07:26:33;;;;;;;;;;;22.30;46.10;;;;;;481325;247;1146;-51
2022/08/04 07:28:34;;;;;;;;;;;22.30;46.10;;;;;;481229;247;2029;-52
2022/08/04 07:30:35;;;;;;;;;;;22.40;46.10;;;;;;481242;247;1136;-51
2022/08/04 07:32:37;;;;;;;;;;;22.30;46.10;;;;;;481277;247;1202;-51
2022/08/04 07:34:38;;;;;;;;;;;22.30;46.10;;;;;;481331;247;1092;-51
2022/08/04 07:36:39;;;;;;;;;;;22.40;46.10;;;;;;481285;247;1192;-52
2022/08/04 07:38:41;;;;;;;;;;;22.40;46.10;;;;;;481408;246;1078;-52
2022/08/04 07:40:42;;;;;;;;;;;22.30;46.00;;;;;;481358;247;1180;-51
2022/08/04 07:42:43;;;;;;;;;;;22.40;46.00;;;;;;481263;246;1324;-51
2022/08/04 07:44:45;;;;;;;;;;;22.30;46.00;;;;;;480937;247;2181;-52
2022/08/04 07:46:46;;;;;;;;;;;22.40;46.00;;;;;;481223;246;1143;-51
2022/08/04 07:48:47;;;;;;;;;;;22.40;46.00;;;;;;481309;247;1233;-52
2022/08/04 07:50:49;;;;;;;;;;;22.30;46.00;;;;;;481344;247;1112;-52
2022/08/04 07:52:50;;;;;;;;;;;22.30;46.00;;;;;;481204;247;1111;-51
2022/08/04 07:54:51;;;;;;;;;;;22.30;46.00;;;;;;481096;247;1238;-51
2022/08/04 07:56:53;;;;;;;;;;;22.40;46.00;;;;;;480538;247;1260;-51
2022/08/04 07:58:54;;;;;;;;;;;22.40;46.00;;;;;;481120;247;1250;-51
2022/08/04 08:00:56;;;;;;;;;;;22.40;46.00;;;;;;481003;247;1218;-50
2022/08/04 08:02:57;;;;;;;;;;;22.30;45.90;;;;;;481056;247;1169;-51
2022/08/04 08:04:58;;;;;;;;;;;22.30;45.90;;;;;;481167;247;2181;-51
2022/08/04 08:07:00;;;;;;;;;;;22.40;45.90;;;;;;481129;246;1133;-51
2022/08/04 08:09:01;;;;;;;;;;;22.30;45.90;;;;;;481109;247;1167;-51
2022/08/04 08:11:02;;;;;;;;;;;22.40;45.90;;;;;;481164;246;1293;-52
2022/08/04 08:13:04;;;;;;;;;;;22.40;45.90;;;;;;481309;246;1356;-51
2022/08/04 08:15:05;;;;;;;;;;;22.40;45.90;;;;;;481277;247;1329;-51
2022/08/04 08:17:06;;;;;;;;;;;22.40;45.90;;;;;;481162;247;1173;-51
2022/08/04 08:19:08;;;;;;;;;;;22.30;45.80;;;;;;481068;247;1217;-51
2022/08/04 08:21:09;;;;;;;;;;;22.40;45.90;;;;;;481185;247;1191;-51
2022/08/04 08:23:10;;;;;;;;;;;22.40;45.90;;;;;;481272;246;1082;-51
2022/08/04 08:25:12;;;;;;;;;;;22.40;45.90;;;;;;481353;247;2182;-51
2022/08/04 08:27:13;;;;;;;;;;;22.40;45.90;;;;;;481270;247;1172;-50
2022/08/04 08:29:15;;;;;;;;;;;22.40;45.90;;;;;;481310;246;1185;-51
2022/08/04 08:31:16;;;;;;;;;;;22.40;45.90;;;;;;481272;247;1360;-51
2022/08/04 08:33:18;;;;;;;;;;;22.40;45.90;;;;;;481248;247;1176;-51
2022/08/04 08:35:19;;;;;;;;;;;22.40;45.90;;;;;;481385;247;1125;-51
2022/08/04 08:37:20;;;;;;;;;;;22.40;45.90;;;;;;481316;247;1306;-51
2022/08/04 08:39:22;;;;;;;;;;;22.40;45.80;;;;;;481283;247;1220;-51
2022/08/04 08:41:23;;;;;;;;;;;22.40;45.90;;;;;;481216;247;1337;-51
2022/08/04 08:43:25;;;;;;;;;;;22.40;45.90;;;;;;481120;247;1187;-51
2022/08/04 08:45:26;;;;;;;;;;;22.40;45.90;;;;;;481184;247;2209;-51
2022/08/04 08:47:28;;;;;;;;;;;22.40;45.80;;;;;;481363;247;1185;-51
2022/08/04 08:49:29;;;;;;;;;;;22.40;45.70;;;;;;481275;247;1262;-51
2022/08/04 08:51:31;;;;;;;;;;;22.40;45.80;;;;;;481013;247;1259;-51
2022/08/04 08:53:32;;;;;;;;;;;22.40;45.80;;;;;;481206;247;1378;-51
2022/08/04 08:55:34;;;;;;;;;;;22.40;45.80;;;;;;480958;247;1267;-51
2022/08/04 08:57:35;;;;;;;;;;;22.40;45.90;;;;;;481148;247;1293;-51
2022/08/04 08:59:37;;;;;;;;;;;22.40;45.80;;;;;;471504;247;1256;-51
2022/08/04 09:01:38;;;;;;;;;;;22.40;45.80;;;;;;470381;249;1412;-51
2022/08/04 09:03:39;;;;;;;;;;;22.40;45.80;;;;;;470036;251;2155;-50
2022/08/04 09:05:41;;;;;;;;;;;22.40;45.80;;;;;;474231;247;1394;-51
2022/08/04 09:07:42;;;;;;;;;;;22.40;45.70;;;;;;481290;246;1228;-50
2022/08/04 09:09:43;;;;;;;;;;;22.50;45.80;;;;;;481266;247;1162;-51
2022/08/04 09:11:45;;;;;;;;;;;22.50;45.70;;;;;;481252;247;1366;-51
2022/08/04 09:13:46;;;;;;;;;;;22.50;45.70;;;;;;481134;246;1214;-51
2022/08/04 09:15:47;;;;;;;;;;;22.50;45.70;;;;;;481141;247;1286;-51
2022/08/04 09:17:48;;;;;;;;;;;22.50;45.70;;;;;;481142;247;1272;-47
2022/08/04 09:19:50;;;;;;;;;;;22.50;45.70;;;;;;481104;247;1258;-51
2022/08/04 09:21:52;;;;;;;;;;;22.50;45.60;;;;;;480947;247;1115;-51
2022/08/04 09:23:53;;;;;;;;;;;22.50;45.60;;;;;;481071;247;2180;-51
2022/08/04 09:25:54;;;;;;;;;;;22.50;45.70;;;;;;481220;246;1194;-50
2022/08/04 09:27:56;;;;;;;;;;;22.50;45.60;;;;;;481283;247;1242;-51
2022/08/04 09:29:57;;;;;;;;;;;22.50;45.60;;;;;;481332;247;1233;-51
2022/08/04 09:31:59;;;;;;;;;;;22.50;45.50;;;;;;481352;247;1102;-51
2022/08/04 09:33:59;;;;;;;;;;;22.50;45.50;;;;;;481340;247;1388;-50
2022/08/04 09:36:01;;;;;;;;;;;22.50;45.60;;;;;;481222;247;1179;-51
2022/08/04 09:38:02;;;;;;;;;;;22.50;45.60;;;;;;481296;246;1263;-51
2022/08/04 09:40:04;;;;;;;;;;;22.50;45.60;;;;;;481361;246;1103;-51
2022/08/04 09:42:06;;;;;;;;;;;22.50;45.50;;;;;;481303;247;1455;-50
2022/08/04 09:44:06;;;;;;;;;;;22.50;45.50;;;;;;481058;247;2196;-50
2022/08/04 09:46:08;;;;;;;;;;;22.50;45.60;;;;;;480985;247;1150;-50
2022/08/04 09:48:09;;;;;;;;;;;22.60;45.50;;;;;;481220;246;1146;-51
2022/08/04 09:50:12;;;;;;;;;;;22.60;45.60;;;;;;481197;247;1107;-51
2022/08/04 09:52:12;;;;;;;;;;;22.60;45.50;;;;;;481209;247;1321;-51
2022/08/04 09:54:13;;;;;;;;;;;22.60;45.50;;;;;;480834;247;1298;-51
2022/08/04 09:56:14;;;;;;;;;;;22.60;45.50;;;;;;481193;247;1081;-51
2022/08/04 09:58:16;;;;;;;;;;;22.60;45.40;;;;;;481136;247;1203;-51
2022/08/04 10:00:19;;;;;;;;;;;22.60;45.40;;;;;;481417;247;1222;-50
2022/08/04 10:02:19;;;;;;;;;;;22.60;45.40;;;;;;481440;246;2127;-50
2022/08/04 10:04:20;;;;;;;;;;;22.60;45.40;;;;;;481199;247;2205;-51
2022/08/04 10:06:21;;;;;;;;;;;22.60;45.40;;;;;;481429;247;1241;-50
2022/08/04 10:08:23;;;;;;;;;;;22.60;45.40;;;;;;481490;246;1126;-50
2022/08/04 10:10:24;;;;;;;;;;;22.60;45.40;;;;;;481216;247;1101;-51
2022/08/04 10:12:25;;;;;;;;;;;22.60;45.40;;;;;;481334;247;1607;-50
2022/08/04 10:14:27;;;;;;;;;;;22.60;45.40;;;;;;481285;247;1229;-50
2022/08/04 10:16:28;;;;;;;;;;;22.60;45.40;;;;;;481004;247;1223;-51
2022/08/04 10:18:29;;;;;;;;;;;22.70;45.40;;;;;;481401;246;1248;-50
2022/08/04 10:20:31;;;;;;;;;;;22.60;45.40;;;;;;481174;247;1079;-51
2022/08/04 10:22:32;;;;;;;;;;;22.70;45.30;;;;;;481324;247;1250;-51
2022/08/04 10:24:34;;;;;;;;;;;22.70;45.30;;;;;;481263;247;2193;-51
2022/08/04 10:26:35;;;;;;;;;;;22.70;45.40;;;;;;481337;247;1267;-51
2022/08/04 10:28:36;;;;;;;;;;;22.70;45.40;;;;;;481453;247;1074;-50
2022/08/04 10:30:38;;;;;;;;;;;22.70;45.40;;;;;;471469;246;1164;-50
2022/08/04 10:32:39;;;;;;;;;;;22.70;45.30;;;;;;470206;251;1242;-50
2022/08/04 10:34:41;;;;;;;;;;;22.70;45.40;;;;;;470131;251;1114;-51
2022/08/04 10:36:42;;;;;;;;;;;22.70;45.40;;;;;;470002;252;1292;-51
2022/08/04 10:38:43;;;;;;;;;;;22.70;45.40;;;;;;470226;252;1121;-51
2022/08/04 10:40:45;;;;;;;;;;;22.70;45.40;;;;;;474879;247;1204;-51
2022/08/04 10:42:48;;;;;;;;;;;22.70;45.30;;;;;;480741;247;1194;-51
2022/08/04 10:44:47;;;;;;;;;;;22.70;45.30;;;;;;481250;247;2368;-52
2022/08/04 10:46:49;;;;;;;;;;;22.70;45.40;;;;;;481449;246;1286;-52
2022/08/04 10:48:50;;;;;;;;;;;22.70;45.30;;;;;;481217;247;1118;-51
2022/08/04 10:50:51;;;;;;;;;;;22.70;45.40;;;;;;481018;247;1203;-51
2022/08/04 10:52:54;;;;;;;;;;;22.60;45.30;;;;;;481357;247;1266;-51
2022/08/04 10:54:55;;;;;;;;;;;22.60;45.30;;;;;;481424;246;1159;-51
2022/08/04 10:56:56;;;;;;;;;;;22.60;45.40;;;;;;481507;246;1324;-51
2022/08/04 10:58:57;;;;;;;;;;;22.60;45.40;;;;;;481378;247;1086;-51
2022/08/04 11:00:59;;;;;;;;;;;22.60;45.30;;;;;;481092;247;1331;-51
2022/08/04 11:03:00;;;;;;;;;;;22.60;45.40;;;;;;481320;246;1372;-51
2022/08/04 11:05:01;;;;;;;;;;;22.60;45.40;;;;;;481255;246;2138;-51
2022/08/04 11:07:03;;;;;;;;;;;22.60;45.40;;;;;;481306;246;1319;-52
2022/08/04 11:09:04;;;;;;;;;;;22.60;45.40;;;;;;481028;247;1158;-51
2022/08/04 11:11:06;;;;;;;;;;;22.60;45.30;;;;;;480984;247;1130;-51
2022/08/04 11:13:07;;;;;;;;;;;22.60;45.30;;;;;;481349;246;2412;-50
2022/08/04 11:15:08;;;;;;;;;;;22.60;45.40;;;;;;480811;247;1168;-52
2022/08/04 11:17:09;;;;;;;;;;;22.60;45.40;;;;;;481354;247;1461;-51
2022/08/04 11:19:11;;;;;;;;;;;22.60;45.40;;;;;;481393;247;1207;-51
2022/08/04 11:21:12;;;;;;;;;;;22.60;45.40;;;;;;481415;247;1228;-51
2022/08/04 11:23:14;;;;;;;;;;;22.60;45.30;;;;;;481293;247;1109;-52
2022/08/04 11:25:17;;;;;;;;;;;22.60;45.40;;;;;;481265;247;2346;-51
2022/08/04 11:27:16;;;;;;;;;;;22.60;45.40;;;;;;481374;247;1886;-51
2022/08/04 11:29:18;;;;;;;;;;;22.60;45.30;;;;;;481409;247;1343;-52
2022/08/04 11:31:19;;;;;;;;;;;22.60;45.40;;;;;;481445;247;1214;-52
2022/08/04 11:33:21;;;;;;;;;;;22.60;45.30;;;;;;481400;247;1108;-51
2022/08/04 11:35:22;;;;;;;;;;;22.60;45.30;;;;;;481360;247;1129;-51
2022/08/04 11:37:23;;;;;;;;;;;22.60;45.30;;;;;;481371;247;1235;-51
2022/08/04 11:39:25;;;;;;;;;;;22.60;45.30;;;;;;481238;246;1335;-51
2022/08/04 11:41:26;;;;;;;;;;;22.60;45.40;;;;;;481181;247;1162;-51
2022/08/04 11:43:27;;;;;;;;;;;22.50;45.30;;;;;;481270;247;1105;-51
2022/08/04 11:45:29;;;;;;;;;;;22.60;45.30;;;;;;480775;247;2193;-52
2022/08/04 11:47:30;;;;;;;;;;;22.60;45.30;;;;;;481482;247;1268;-52
2022/08/04 11:49:31;;;;;;;;;;;22.60;45.30;;;;;;481445;247;1309;-51
2022/08/04 11:51:33;;;;;;;;;;;22.60;45.30;;;;;;481387;247;1204;-51
2022/08/04 11:53:34;;;;;;;;;;;22.60;45.30;;;;;;481163;247;1337;-52
2022/08/04 11:55:36;;;;;;;;;;;22.60;45.30;;;;;;481405;247;1257;-51
2022/08/04 11:57:37;;;;;;;;;;;22.60;45.30;;;;;;481366;247;1285;-51
2022/08/04 11:59:38;;;;;;;;;;;22.50;45.20;;;;;;481453;247;1223;-51